sensor_id;sensor_type;location;lat;lon;timestamp;pressure;altitude;pressure_sealevel;temperature
65316;BMP280;51920;53.952;10.292;2023-09-19T00:01:34;99828.75;;;17.05
65316;BMP280;51920;53.952;10.292;2023-09-19T00:04:01;99829.00;;;17.20
65316;BMP280;51920;53.952;10.292;2023-09-19T00:06:29;99826.94;;;17.11
65316;BMP280;51920;53.952;10.292;2023-09-19T00:08:58;99824.28;;;17.20
65316;BMP280;51920;53.952;10.292;2023-09-19T00:11:27;99825.91;;;17.18
65316;BMP280;51920;53.952;10.292;2023-09-19T00:13:53;99816.31;;;17.13
65316;BMP280;51920;53.952;10.292;2023-09-19T00:16:20;99819.06;;;17.13
65316;BMP280;51920;53.952;10.292;2023-09-19T00:18:47;99822.88;;;17.16
65316;BMP280;51920;53.952;10.292;2023-09-19T00:21:15;99821.03;;;17.13
65316;BMP280;51920;53.952;10.292;2023-09-19T00:23:42;99815.22;;;17.11
65316;BMP280;51920;53.952;10.292;2023-09-19T00:26:08;99827.59;;;17.15
65316;BMP280;51920;53.952;10.292;2023-09-19T00:28:35;99827.78;;;17.21
65316;BMP280;51920;53.952;10.292;2023-09-19T00:31:02;99825.59;;;17.16
65316;BMP280;51920;53.952;10.292;2023-09-19T00:33:30;99830.00;;;17.13
65316;BMP280;51920;53.952;10.292;2023-09-19T00:35:57;99832.00;;;17.22
65316;BMP280;51920;53.952;10.292;2023-09-19T00:38:24;99843.88;;;17.19
65316;BMP280;51920;53.952;10.292;2023-09-19T00:40:54;99849.47;;;17.15
65316;BMP280;51920;53.952;10.292;2023-09-19T00:43:21;99849.34;;;17.19
65316;BMP280;51920;53.952;10.292;2023-09-19T00:45:53;99851.13;;;17.13
65316;BMP280;51920;53.952;10.292;2023-09-19T00:48:22;99844.25;;;17.08
65316;BMP280;51920;53.952;10.292;2023-09-19T00:50:49;99853.81;;;17.03
65316;BMP280;51920;53.952;10.292;2023-09-19T00:53:19;99848.53;;;17.09
65316;BMP280;51920;53.952;10.292;2023-09-19T00:55:47;99855.63;;;17.07
65316;BMP280;51920;53.952;10.292;2023-09-19T00:58:16;99847.31;;;17.10
65316;BMP280;51920;53.952;10.292;2023-09-19T01:00:44;99850.34;;;17.12
65316;BMP280;51920;53.952;10.292;2023-09-19T01:03:11;99857.38;;;17.13
65316;BMP280;51920;53.952;10.292;2023-09-19T01:05:39;99855.97;;;17.09
65316;BMP280;51920;53.952;10.292;2023-09-19T01:08:06;99847.44;;;17.07
65316;BMP280;51920;53.952;10.292;2023-09-19T01:10:33;99845.91;;;17.06
65316;BMP280;51920;53.952;10.292;2023-09-19T01:21:10;99859.84;;;16.98
65316;BMP280;51920;53.952;10.292;2023-09-19T01:23:54;99861.28;;;17.12
65316;BMP280;51920;53.952;10.292;2023-09-19T01:26:32;99858.94;;;17.01
65316;BMP280;51920;53.952;10.292;2023-09-19T01:31:42;99851.59;;;16.89
65316;BMP280;51920;53.952;10.292;2023-09-19T01:34:09;99858.53;;;16.81
65316;BMP280;51920;53.952;10.292;2023-09-19T01:36:37;99864.25;;;16.74
65316;BMP280;51920;53.952;10.292;2023-09-19T01:39:08;99861.19;;;16.72
65316;BMP280;51920;53.952;10.292;2023-09-19T01:42:01;99866.03;;;16.68
65316;BMP280;51920;53.952;10.292;2023-09-19T01:47:37;99873.13;;;16.65
65316;BMP280;51920;53.952;10.292;2023-09-19T01:52:57;99872.47;;;16.61
65316;BMP280;51920;53.952;10.292;2023-09-19T01:55:28;99874.81;;;16.50
65316;BMP280;51920;53.952;10.292;2023-09-19T01:58:06;99872.28;;;16.55
65316;BMP280;51920;53.952;10.292;2023-09-19T02:00:36;99868.66;;;16.58
65316;BMP280;51920;53.952;10.292;2023-09-19T02:03:04;99879.59;;;16.58
65316;BMP280;51920;53.952;10.292;2023-09-19T02:05:30;99884.06;;;16.65
65316;BMP280;51920;53.952;10.292;2023-09-19T02:07:57;99888.19;;;16.70
65316;BMP280;51920;53.952;10.292;2023-09-19T02:10:25;99879.38;;;16.66
65316;BMP280;51920;53.952;10.292;2023-09-19T02:12:51;99885.25;;;16.64
65316;BMP280;51920;53.952;10.292;2023-09-19T02:15:18;99893.38;;;16.68
65316;BMP280;51920;53.952;10.292;2023-09-19T02:17:45;99893.38;;;16.68
65316;BMP280;51920;53.952;10.292;2023-09-19T02:20:13;99893.47;;;16.64
65316;BMP280;51920;53.952;10.292;2023-09-19T02:22:43;99895.91;;;16.62
65316;BMP280;51920;53.952;10.292;2023-09-19T02:25:10;99899.31;;;16.53
65316;BMP280;51920;53.952;10.292;2023-09-19T02:27:37;99895.38;;;16.54
65316;BMP280;51920;53.952;10.292;2023-09-19T02:30:05;99894.09;;;16.46
65316;BMP280;51920;53.952;10.292;2023-09-19T02:32:32;99907.13;;;16.42
65316;BMP280;51920;53.952;10.292;2023-09-19T02:35:02;99911.59;;;16.36
65316;BMP280;51920;53.952;10.292;2023-09-19T02:37:31;99910.50;;;16.33
65316;BMP280;51920;53.952;10.292;2023-09-19T02:39:59;99907.00;;;16.33
65316;BMP280;51920;53.952;10.292;2023-09-19T02:42:25;99919.59;;;16.30
65316;BMP280;51920;53.952;10.292;2023-09-19T02:44:52;99917.28;;;16.29
65316;BMP280;51920;53.952;10.292;2023-09-19T02:47:20;99919.06;;;16.23
65316;BMP280;51920;53.952;10.292;2023-09-19T02:49:46;99925.41;;;16.20
65316;BMP280;51920;53.952;10.292;2023-09-19T02:52:13;99926.38;;;16.13
65316;BMP280;51920;53.952;10.292;2023-09-19T02:54:40;99920.16;;;16.12
65316;BMP280;51920;53.952;10.292;2023-09-19T02:57:08;99925.06;;;16.18
65316;BMP280;51920;53.952;10.292;2023-09-19T02:59:36;99921.66;;;16.13
65316;BMP280;51920;53.952;10.292;2023-09-19T03:02:04;99925.41;;;16.07
65316;BMP280;51920;53.952;10.292;2023-09-19T03:04:31;99929.31;;;16.06
65316;BMP280;51920;53.952;10.292;2023-09-19T03:06:59;99925.19;;;16.01
65316;BMP280;51920;53.952;10.292;2023-09-19T03:09:27;99930.09;;;15.94
65316;BMP280;51920;53.952;10.292;2023-09-19T03:11:54;99933.50;;;15.98
65316;BMP280;51920;53.952;10.292;2023-09-19T03:14:21;99927.94;;;16.01
65316;BMP280;51920;53.952;10.292;2023-09-19T03:16:47;99920.03;;;15.90
65316;BMP280;51920;53.952;10.292;2023-09-19T03:19:14;99927.59;;;15.86
65316;BMP280;51920;53.952;10.292;2023-09-19T03:21:42;99924.94;;;15.83
65316;BMP280;51920;53.952;10.292;2023-09-19T03:24:09;99920.94;;;15.75
65316;BMP280;51920;53.952;10.292;2023-09-19T03:26:35;99925.47;;;15.78
65316;BMP280;51920;53.952;10.292;2023-09-19T03:29:05;99923.34;;;15.85
65316;BMP280;51920;53.952;10.292;2023-09-19T03:31:33;99924.94;;;15.83
65316;BMP280;51920;53.952;10.292;2023-09-19T03:34:03;99912.28;;;15.76
65316;BMP280;51920;53.952;10.292;2023-09-19T03:36:30;99928.22;;;15.78
65316;BMP280;51920;53.952;10.292;2023-09-19T03:39:00;99917.19;;;15.68
65316;BMP280;51920;53.952;10.292;2023-09-19T03:41:28;99919.72;;;15.76
65316;BMP280;51920;53.952;10.292;2023-09-19T03:43:56;99928.66;;;15.76
65316;BMP280;51920;53.952;10.292;2023-09-19T03:46:23;99925.69;;;15.83
65316;BMP280;51920;53.952;10.292;2023-09-19T03:48:49;99928.00;;;15.72
65316;BMP280;51920;53.952;10.292;2023-09-19T03:51:16;99925.38;;;15.68
65316;BMP280;51920;53.952;10.292;2023-09-19T03:53:43;99943.09;;;15.77
65316;BMP280;51920;53.952;10.292;2023-09-19T03:56:10;99938.81;;;15.63
65316;BMP280;51920;53.952;10.292;2023-09-19T03:58:37;99941.75;;;15.68
65316;BMP280;51920;53.952;10.292;2023-09-19T04:01:06;99951.91;;;15.68
65316;BMP280;51920;53.952;10.292;2023-09-19T04:03:36;99963.59;;;15.68
65316;BMP280;51920;53.952;10.292;2023-09-19T04:06:14;99961.53;;;15.60
65316;BMP280;51920;53.952;10.292;2023-09-19T04:08:41;99958.88;;;15.56
65316;BMP280;51920;53.952;10.292;2023-09-19T04:11:08;99958.03;;;15.59
65316;BMP280;51920;53.952;10.292;2023-09-19T04:13:35;99927.06;;;15.37
65316;BMP280;51920;53.952;10.292;2023-09-19T04:16:03;99967.81;;;15.57
65316;BMP280;51920;53.952;10.292;2023-09-19T04:18:37;99960.00;;;15.59
65316;BMP280;51920;53.952;10.292;2023-09-19T04:21:05;99956.78;;;15.47
65316;BMP280;51920;53.952;10.292;2023-09-19T04:23:32;99963.56;;;15.43
65316;BMP280;51920;53.952;10.292;2023-09-19T04:25:59;99965.88;;;15.57
65316;BMP280;51920;53.952;10.292;2023-09-19T04:28:26;99976.31;;;15.46
65316;BMP280;51920;53.952;10.292;2023-09-19T04:30:54;99975.78;;;15.51
65316;BMP280;51920;53.952;10.292;2023-09-19T04:33:21;99975.97;;;15.44
65316;BMP280;51920;53.952;10.292;2023-09-19T04:35:51;99982.41;;;15.37
65316;BMP280;51920;53.952;10.292;2023-09-19T04:38:18;99976.84;;;15.41
65316;BMP280;51920;53.952;10.292;2023-09-19T04:40:46;99992.22;;;15.35
65316;BMP280;51920;53.952;10.292;2023-09-19T04:43:13;99981.41;;;15.31
65316;BMP280;51920;53.952;10.292;2023-09-19T04:45:39;99980.28;;;15.29
65316;BMP280;51920;53.952;10.292;2023-09-19T04:48:10;99998.03;;;15.37
65316;BMP280;51920;53.952;10.292;2023-09-19T04:50:37;99987.38;;;15.26
65316;BMP280;51920;53.952;10.292;2023-09-19T04:53:04;100006.66;;;15.19
65316;BMP280;51920;53.952;10.292;2023-09-19T04:55:31;100013.94;;;15.38
65316;BMP280;51920;53.952;10.292;2023-09-19T04:57:59;99990.91;;;15.10
65316;BMP280;51920;53.952;10.292;2023-09-19T05:00:25;100027.38;;;15.16
65316;BMP280;51920;53.952;10.292;2023-09-19T05:02:56;100019.44;;;15.05
65316;BMP280;51920;53.952;10.292;2023-09-19T05:05:23;100034.53;;;15.10
65316;BMP280;51920;53.952;10.292;2023-09-19T05:07:51;100023.56;;;15.14
65316;BMP280;51920;53.952;10.292;2023-09-19T05:10:20;100030.88;;;15.17
65316;BMP280;51920;53.952;10.292;2023-09-19T05:12:47;100036.84;;;15.12
65316;BMP280;51920;53.952;10.292;2023-09-19T05:15:14;100039.41;;;15.19
65316;BMP280;51920;53.952;10.292;2023-09-19T05:17:51;100042.91;;;15.19
65316;BMP280;51920;53.952;10.292;2023-09-19T05:20:43;100041.19;;;15.09
65316;BMP280;51920;53.952;10.292;2023-09-19T05:23:10;100042.13;;;15.19
65316;BMP280;51920;53.952;10.292;2023-09-19T05:25:39;100042.91;;;15.19
65316;BMP280;51920;53.952;10.292;2023-09-19T05:28:08;100049.03;;;15.23
65316;BMP280;51920;53.952;10.292;2023-09-19T05:30:36;100049.56;;;15.18
65316;BMP280;51920;53.952;10.292;2023-09-19T05:33:03;100047.66;;;15.15
65316;BMP280;51920;53.952;10.292;2023-09-19T05:35:31;100053.97;;;15.12
65316;BMP280;51920;53.952;10.292;2023-09-19T05:37:57;100062.00;;;15.19
65316;BMP280;51920;53.952;10.292;2023-09-19T05:40:25;100059.25;;;15.19
65316;BMP280;51920;53.952;10.292;2023-09-19T05:42:51;100063.19;;;15.18
65316;BMP280;51920;53.952;10.292;2023-09-19T05:45:18;100036.94;;;15.08
65316;BMP280;51920;53.952;10.292;2023-09-19T05:47:49;100051.16;;;15.16
65316;BMP280;51920;53.952;10.292;2023-09-19T05:50:17;100059.94;;;15.23
65316;BMP280;51920;53.952;10.292;2023-09-19T05:52:51;100056.78;;;15.09
65316;BMP280;51920;53.952;10.292;2023-09-19T05:55:19;100077.25;;;15.17
65316;BMP280;51920;53.952;10.292;2023-09-19T05:57:50;100072.38;;;15.24
65316;BMP280;51920;53.952;10.292;2023-09-19T06:00:21;100071.66;;;15.53
65316;BMP280;51920;53.952;10.292;2023-09-19T06:02:53;100069.19;;;15.59
65316;BMP280;51920;53.952;10.292;2023-09-19T06:05:20;100068.22;;;15.65
65316;BMP280;51920;53.952;10.292;2023-09-19T06:07:47;100058.16;;;15.62
65316;BMP280;51920;53.952;10.292;2023-09-19T06:10:14;100062.53;;;16.02
65316;BMP280;51920;53.952;10.292;2023-09-19T06:12:42;100079.69;;;16.02
65316;BMP280;51920;53.952;10.292;2023-09-19T06:15:13;100072.50;;;16.34
65316;BMP280;51920;53.952;10.292;2023-09-19T06:17:53;100079.44;;;16.51
65316;BMP280;51920;53.952;10.292;2023-09-19T06:20:24;100081.19;;;16.58
65316;BMP280;51920;53.952;10.292;2023-09-19T06:22:53;100081.78;;;16.75
65316;BMP280;51920;53.952;10.292;2023-09-19T06:25:20;100066.72;;;16.83
65316;BMP280;51920;53.952;10.292;2023-09-19T06:27:51;100100.25;;;16.96
65316;BMP280;51920;53.952;10.292;2023-09-19T06:30:23;100107.97;;;16.76
65316;BMP280;51920;53.952;10.292;2023-09-19T06:32:58;100093.84;;;16.65
65316;BMP280;51920;53.952;10.292;2023-09-19T06:35:26;100107.50;;;16.90
65316;BMP280;51920;53.952;10.292;2023-09-19T06:37:53;100092.44;;;16.47
65316;BMP280;51920;53.952;10.292;2023-09-19T06:40:20;100104.88;;;16.48
65316;BMP280;51920;53.952;10.292;2023-09-19T06:42:50;100100.31;;;16.71
65316;BMP280;51920;53.952;10.292;2023-09-19T06:45:18;100105.13;;;16.41
65316;BMP280;51920;53.952;10.292;2023-09-19T06:47:45;100109.78;;;16.28
65316;BMP280;51920;53.952;10.292;2023-09-19T06:50:20;100105.50;;;16.27
65316;BMP280;51920;53.952;10.292;2023-09-19T06:52:49;100091.19;;;16.10
65316;BMP280;51920;53.952;10.292;2023-09-19T06:55:18;100101.13;;;16.17
65316;BMP280;51920;53.952;10.292;2023-09-19T06:57:47;100121.56;;;16.12
65316;BMP280;51920;53.952;10.292;2023-09-19T07:00:15;100123.38;;;16.02
65316;BMP280;51920;53.952;10.292;2023-09-19T07:02:58;100121.69;;;16.08
65316;BMP280;51920;53.952;10.292;2023-09-19T07:05:27;100120.78;;;16.11
65316;BMP280;51920;53.952;10.292;2023-09-19T07:07:54;100135.56;;;16.27
65316;BMP280;51920;53.952;10.292;2023-09-19T07:10:29;100122.00;;;16.10
65316;BMP280;51920;53.952;10.292;2023-09-19T07:12:57;100145.59;;;16.17
65316;BMP280;51920;53.952;10.292;2023-09-19T07:15:26;100131.72;;;16.11
65316;BMP280;51920;53.952;10.292;2023-09-19T07:17:53;100145.53;;;16.21
65316;BMP280;51920;53.952;10.292;2023-09-19T07:20:20;100150.41;;;16.13
65316;BMP280;51920;53.952;10.292;2023-09-19T07:22:47;100153.66;;;16.08
65316;BMP280;51920;53.952;10.292;2023-09-19T07:25:14;100145.72;;;16.13
65316;BMP280;51920;53.952;10.292;2023-09-19T07:27:41;100129.03;;;15.95
65316;BMP280;51920;53.952;10.292;2023-09-19T07:30:08;100148.44;;;16.13
65316;BMP280;51920;53.952;10.292;2023-09-19T07:32:35;100150.75;;;16.15
65316;BMP280;51920;53.952;10.292;2023-09-19T07:35:05;100149.53;;;16.16
65316;BMP280;51920;53.952;10.292;2023-09-19T07:37:32;100156.97;;;16.16
65316;BMP280;51920;53.952;10.292;2023-09-19T07:40:03;100153.56;;;16.41
65316;BMP280;51920;53.952;10.292;2023-09-19T07:42:36;100149.50;;;16.45
65316;BMP280;51920;53.952;10.292;2023-09-19T07:45:05;100140.69;;;16.67
65316;BMP280;51920;53.952;10.292;2023-09-19T07:47:33;100139.66;;;16.61
65316;BMP280;51920;53.952;10.292;2023-09-19T07:49:59;100147.31;;;16.91
65316;BMP280;51920;53.952;10.292;2023-09-19T07:52:29;100157.94;;;16.76
65316;BMP280;51920;53.952;10.292;2023-09-19T07:54:55;100149.94;;;16.69
65316;BMP280;51920;53.952;10.292;2023-09-19T07:57:24;100156.53;;;16.72
65316;BMP280;51920;53.952;10.292;2023-09-19T07:59:51;100157.97;;;16.64
65316;BMP280;51920;53.952;10.292;2023-09-19T08:02:18;100139.22;;;16.36
65316;BMP280;51920;53.952;10.292;2023-09-19T08:04:45;100167.78;;;16.61
65316;BMP280;51920;53.952;10.292;2023-09-19T08:07:15;100161.22;;;16.58
65316;BMP280;51920;53.952;10.292;2023-09-19T08:09:42;100159.13;;;16.50
65316;BMP280;51920;53.952;10.292;2023-09-19T08:12:12;100155.44;;;16.56
65316;BMP280;51920;53.952;10.292;2023-09-19T08:14:39;100155.97;;;16.64
65316;BMP280;51920;53.952;10.292;2023-09-19T08:17:08;100165.03;;;16.48
65316;BMP280;51920;53.952;10.292;2023-09-19T08:19:34;100171.47;;;16.42
65316;BMP280;51920;53.952;10.292;2023-09-19T08:22:02;100172.56;;;16.44
65316;BMP280;51920;53.952;10.292;2023-09-19T08:24:29;100173.56;;;16.50
65316;BMP280;51920;53.952;10.292;2023-09-19T08:26:57;100160.78;;;16.47
65316;BMP280;51920;53.952;10.292;2023-09-19T08:29:24;100164.19;;;16.51
65316;BMP280;51920;53.952;10.292;2023-09-19T08:31:55;100163.31;;;16.54
65316;BMP280;51920;53.952;10.292;2023-09-19T08:34:25;100155.75;;;16.71
65316;BMP280;51920;53.952;10.292;2023-09-19T08:36:53;100157.25;;;16.59
65316;BMP280;51920;53.952;10.292;2023-09-19T08:39:23;100139.88;;;16.66
65316;BMP280;51920;53.952;10.292;2023-09-19T08:42:00;100161.88;;;16.75
65316;BMP280;51920;53.952;10.292;2023-09-19T08:44:28;100158.28;;;16.66
65316;BMP280;51920;53.952;10.292;2023-09-19T08:47:09;100155.00;;;16.71
65316;BMP280;51920;53.952;10.292;2023-09-19T08:52:51;100158.16;;;16.69
65316;BMP280;51920;53.952;10.292;2023-09-19T08:55:23;100169.22;;;16.78
65316;BMP280;51920;53.952;10.292;2023-09-19T08:58:00;100163.53;;;16.73
65316;BMP280;51920;53.952;10.292;2023-09-19T09:00:28;100159.38;;;16.81
65316;BMP280;51920;53.952;10.292;2023-09-19T09:02:56;100169.31;;;16.75
65316;BMP280;51920;53.952;10.292;2023-09-19T09:05:24;100175.31;;;16.70
65316;BMP280;51920;53.952;10.292;2023-09-19T09:07:51;100170.56;;;16.74
65316;BMP280;51920;53.952;10.292;2023-09-19T09:10:18;100175.63;;;16.59
65316;BMP280;51920;53.952;10.292;2023-09-19T09:12:51;100181.81;;;16.63
65316;BMP280;51920;53.952;10.292;2023-09-19T09:15:19;100191.09;;;16.66
65316;BMP280;51920;53.952;10.292;2023-09-19T09:17:52;100183.53;;;16.70
65316;BMP280;51920;53.952;10.292;2023-09-19T09:20:22;100194.03;;;16.71
65316;BMP280;51920;53.952;10.292;2023-09-19T09:22:56;100193.72;;;16.82
65316;BMP280;51920;53.952;10.292;2023-09-19T09:25:49;100195.91;;;16.87
65316;BMP280;51920;53.952;10.292;2023-09-19T09:28:24;100189.13;;;16.79
65316;BMP280;51920;53.952;10.292;2023-09-19T09:30:51;100198.44;;;16.94
65316;BMP280;51920;53.952;10.292;2023-09-19T09:33:18;100199.78;;;16.90
65316;BMP280;51920;53.952;10.292;2023-09-19T09:38:19;100188.16;;;16.98
65316;BMP280;51920;53.952;10.292;2023-09-19T09:40:48;100206.41;;;17.01
65316;BMP280;51920;53.952;10.292;2023-09-19T09:46:08;100217.28;;;17.31
65316;BMP280;51920;53.952;10.292;2023-09-19T09:49:05;100213.72;;;17.56
65316;BMP280;51920;53.952;10.292;2023-09-19T09:54:34;100219.50;;;17.92
65316;BMP280;51920;53.952;10.292;2023-09-19T09:57:08;100211.16;;;17.96
65316;BMP280;51920;53.952;10.292;2023-09-19T09:59:50;100218.09;;;18.10
65316;BMP280;51920;53.952;10.292;2023-09-19T10:02:25;100216.22;;;18.20
65316;BMP280;51920;53.952;10.292;2023-09-19T10:04:56;100223.66;;;18.41
65316;BMP280;51920;53.952;10.292;2023-09-19T10:07:33;100229.88;;;18.42
65316;BMP280;51920;53.952;10.292;2023-09-19T10:10:08;100225.84;;;18.24
65316;BMP280;51920;53.952;10.292;2023-09-19T10:12:48;100229.31;;;18.47
65316;BMP280;51920;53.952;10.292;2023-09-19T10:15:18;100226.00;;;18.30
65316;BMP280;51920;53.952;10.292;2023-09-19T10:17:51;100227.78;;;18.02
65316;BMP280;51920;53.952;10.292;2023-09-19T10:20:21;100216.31;;;18.16
65316;BMP280;51920;53.952;10.292;2023-09-19T10:23:00;100228.47;;;18.59
65316;BMP280;51920;53.952;10.292;2023-09-19T10:25:28;100213.66;;;18.88
65316;BMP280;51920;53.952;10.292;2023-09-19T10:27:56;100231.34;;;19.27
65316;BMP280;51920;53.952;10.292;2023-09-19T10:30:24;100236.69;;;19.40
65316;BMP280;51920;53.952;10.292;2023-09-19T10:32:59;100223.88;;;19.37
65316;BMP280;51920;53.952;10.292;2023-09-19T10:35:27;100235.88;;;19.30
65316;BMP280;51920;53.952;10.292;2023-09-19T10:37:55;100227.00;;;19.08
65316;BMP280;51920;53.952;10.292;2023-09-19T10:40:24;100220.19;;;19.31
65316;BMP280;51920;53.952;10.292;2023-09-19T10:43:01;100217.63;;;19.36
65316;BMP280;51920;53.952;10.292;2023-09-19T10:45:30;100233.72;;;19.16
65316;BMP280;51920;53.952;10.292;2023-09-19T10:47:59;100234.84;;;19.27
65316;BMP280;51920;53.952;10.292;2023-09-19T10:50:30;100227.34;;;19.19
65316;BMP280;51920;53.952;10.292;2023-09-19T10:53:01;100203.28;;;18.83
65316;BMP280;51920;53.952;10.292;2023-09-19T10:55:32;100232.69;;;19.32
65316;BMP280;51920;53.952;10.292;2023-09-19T10:58:02;100233.22;;;18.90
65316;BMP280;51920;53.952;10.292;2023-09-19T11:00:57;100235.72;;;19.15
65316;BMP280;51920;53.952;10.292;2023-09-19T11:03:28;100241.31;;;19.02
65316;BMP280;51920;53.952;10.292;2023-09-19T11:06:06;100235.50;;;18.60
65316;BMP280;51920;53.952;10.292;2023-09-19T11:09:00;100237.25;;;18.54
65316;BMP280;51920;53.952;10.292;2023-09-19T11:11:46;100239.72;;;18.52
65316;BMP280;51920;53.952;10.292;2023-09-19T11:30:33;100225.94;;;19.05
65316;BMP280;51920;53.952;10.292;2023-09-19T11:33:16;100220.47;;;19.14
65316;BMP280;51920;53.952;10.292;2023-09-19T11:39:26;100212.88;;;19.37
65316;BMP280;51920;53.952;10.292;2023-09-19T11:41:58;100211.03;;;19.34
65316;BMP280;51920;53.952;10.292;2023-09-19T11:44:33;100216.53;;;19.34
65316;BMP280;51920;53.952;10.292;2023-09-19T11:47:01;100216.88;;;19.54
65316;BMP280;51920;53.952;10.292;2023-09-19T11:49:31;100216.13;;;19.54
65316;BMP280;51920;53.952;10.292;2023-09-19T11:52:00;100210.88;;;19.28
65316;BMP280;51920;53.952;10.292;2023-09-19T11:54:28;100222.31;;;19.26
65316;BMP280;51920;53.952;10.292;2023-09-19T11:56:59;100205.50;;;19.06
65316;BMP280;51920;53.952;10.292;2023-09-19T11:59:29;100222.25;;;18.99
65316;BMP280;51920;53.952;10.292;2023-09-19T12:02:01;100219.06;;;19.00
65316;BMP280;51920;53.952;10.292;2023-09-19T12:04:40;100217.34;;;18.94
65316;BMP280;51920;53.952;10.292;2023-09-19T12:13:10;100196.09;;;19.25
65316;BMP280;51920;53.952;10.292;2023-09-19T12:19:23;100193.25;;;18.98
65316;BMP280;51920;53.952;10.292;2023-09-19T12:21:55;100211.13;;;19.02
65316;BMP280;51920;53.952;10.292;2023-09-19T12:24:26;100204.94;;;19.30
65316;BMP280;51920;53.952;10.292;2023-09-19T12:27:06;100208.78;;;19.32
65316;BMP280;51920;53.952;10.292;2023-09-19T12:29:47;100206.13;;;19.19
65316;BMP280;51920;53.952;10.292;2023-09-19T12:32:35;100215.31;;;19.25
65316;BMP280;51920;53.952;10.292;2023-09-19T12:35:03;100222.44;;;19.14
65316;BMP280;51920;53.952;10.292;2023-09-19T12:37:33;100218.50;;;19.33
65316;BMP280;51920;53.952;10.292;2023-09-19T12:40:09;100219.56;;;19.26
65316;BMP280;51920;53.952;10.292;2023-09-19T12:42:49;100213.69;;;18.97
65316;BMP280;51920;53.952;10.292;2023-09-19T12:53:29;100233.00;;;19.34
65316;BMP280;51920;53.952;10.292;2023-09-19T12:55:59;100203.06;;;19.17
65316;BMP280;51920;53.952;10.292;2023-09-19T13:08:37;100214.28;;;19.32
65316;BMP280;51920;53.952;10.292;2023-09-19T13:11:36;100204.19;;;19.38
65316;BMP280;51920;53.952;10.292;2023-09-19T13:16:56;100192.09;;;19.26
65316;BMP280;51920;53.952;10.292;2023-09-19T13:19:41;100196.84;;;19.35
65316;BMP280;51920;53.952;10.292;2023-09-19T13:22:39;100189.41;;;19.36
65316;BMP280;51920;53.952;10.292;2023-09-19T13:25:14;100198.25;;;19.49
65316;BMP280;51920;53.952;10.292;2023-09-19T13:27:49;100183.00;;;19.57
65316;BMP280;51920;53.952;10.292;2023-09-19T13:30:18;100185.88;;;19.44
65316;BMP280;51920;53.952;10.292;2023-09-19T13:32:46;100177.94;;;19.46
65316;BMP280;51920;53.952;10.292;2023-09-19T13:35:14;100175.06;;;19.59
65316;BMP280;51920;53.952;10.292;2023-09-19T13:37:42;100176.13;;;19.53
65316;BMP280;51920;53.952;10.292;2023-09-19T13:40:10;100168.03;;;19.40
65316;BMP280;51920;53.952;10.292;2023-09-19T13:42:38;100167.72;;;19.29
65316;BMP280;51920;53.952;10.292;2023-09-19T13:45:05;100155.34;;;19.33
65316;BMP280;51920;53.952;10.292;2023-09-19T13:47:32;100156.44;;;19.36
65316;BMP280;51920;53.952;10.292;2023-09-19T13:50:01;100169.84;;;19.34
65316;BMP280;51920;53.952;10.292;2023-09-19T13:52:31;100181.44;;;19.29
65316;BMP280;51920;53.952;10.292;2023-09-19T13:54:58;100169.97;;;19.30
65316;BMP280;51920;53.952;10.292;2023-09-19T13:57:26;100168.78;;;19.22
65316;BMP280;51920;53.952;10.292;2023-09-19T13:59:53;100163.56;;;19.24
65316;BMP280;51920;53.952;10.292;2023-09-19T14:02:21;100149.13;;;19.33
65316;BMP280;51920;53.952;10.292;2023-09-19T14:04:52;100154.91;;;19.44
65316;BMP280;51920;53.952;10.292;2023-09-19T14:07:18;100134.63;;;19.51
65316;BMP280;51920;53.952;10.292;2023-09-19T14:09:46;100141.78;;;19.48
65316;BMP280;51920;53.952;10.292;2023-09-19T14:12:22;100124.25;;;19.36
65316;BMP280;51920;53.952;10.292;2023-09-19T14:14:49;100125.72;;;19.37
65316;BMP280;51920;53.952;10.292;2023-09-19T14:17:17;100125.59;;;19.41
65316;BMP280;51920;53.952;10.292;2023-09-19T14:19:45;100137.50;;;19.47
65316;BMP280;51920;53.952;10.292;2023-09-19T14:22:12;100113.84;;;19.40
65316;BMP280;51920;53.952;10.292;2023-09-19T14:24:40;100132.31;;;19.49
65316;BMP280;51920;53.952;10.292;2023-09-19T14:27:07;100125.63;;;19.50
65316;BMP280;51920;53.952;10.292;2023-09-19T14:29:36;100117.81;;;19.48
65316;BMP280;51920;53.952;10.292;2023-09-19T14:32:03;100099.81;;;19.38
65316;BMP280;51920;53.952;10.292;2023-09-19T14:34:29;100107.00;;;19.36
65316;BMP280;51920;53.952;10.292;2023-09-19T14:36:56;100103.75;;;19.37
65316;BMP280;51920;53.952;10.292;2023-09-19T14:39:23;100105.47;;;19.35
65316;BMP280;51920;53.952;10.292;2023-09-19T14:41:49;100100.56;;;19.39
65316;BMP280;51920;53.952;10.292;2023-09-19T14:44:16;100103.63;;;19.41
65316;BMP280;51920;53.952;10.292;2023-09-19T14:46:43;100110.97;;;19.35
65316;BMP280;51920;53.952;10.292;2023-09-19T14:49:11;100102.09;;;19.12
65316;BMP280;51920;53.952;10.292;2023-09-19T14:51:38;100103.94;;;19.15
65316;BMP280;51920;53.952;10.292;2023-09-19T14:54:06;100109.41;;;19.15
65316;BMP280;51920;53.952;10.292;2023-09-19T14:56:34;100097.56;;;19.09
65316;BMP280;51920;53.952;10.292;2023-09-19T14:59:01;100112.16;;;19.15
65316;BMP280;51920;53.952;10.292;2023-09-19T15:01:29;100108.03;;;19.11
65316;BMP280;51920;53.952;10.292;2023-09-19T15:03:56;100095.84;;;19.02
65316;BMP280;51920;53.952;10.292;2023-09-19T15:06:23;100104.53;;;19.10
65316;BMP280;51920;53.952;10.292;2023-09-19T15:08:50;100090.66;;;19.04
65316;BMP280;51920;53.952;10.292;2023-09-19T15:11:18;100107.28;;;19.10
65316;BMP280;51920;53.952;10.292;2023-09-19T15:13:47;100108.53;;;19.09
65316;BMP280;51920;53.952;10.292;2023-09-19T15:16:14;100112.31;;;19.12
65316;BMP280;51920;53.952;10.292;2023-09-19T15:18:42;100099.03;;;19.01
65316;BMP280;51920;53.952;10.292;2023-09-19T15:21:10;100087.75;;;18.99
65316;BMP280;51920;53.952;10.292;2023-09-19T15:23:38;100099.03;;;19.01